Date,TemperatureHighF,TemperatureAvgF,TemperatureLowF,DewpointHighF,DewpointAvgF,DewpointLowF,HumidityHigh,HumidityAvg,HumidityLow,PressureMaxIn,PressureMinIn,WindSpeedMaxMPH,WindSpeedAvgMPH,GustSpeedMaxMPH,PrecipitationSumIn
2013-1-1,55,41,34,38,33,31,90,76,42,30.20,30.11,9,0,0,0.00
2013-1-2,59,41,33,39,33,28,89,73,45,30.17,30.07,8,0,0,0.00
2013-1-3,59,41,33,38,34,30,90,77,43,30.18,30.09,6,0,0,0.00
2013-1-4,59,43,35,42,36,31,90,78,49,30.21,30.11,5,0,0,0.00
2013-1-5,54,44,37,43,39,34,94,84,66,30.19,30.00,6,0,0,0.02
2013-1-6,53,44,39,46,42,38,96,92,76,30.10,29.99,5,0,0,0.21
2013-1-7,51,42,37,44,39,35,95,90,74,30.17,30.04,8,0,0,0.00
2013-1-8,58,44,38,46,41,37,97,88,63,30.17,30.06,4,0,0,0.01
2013-1-9,51,44,40,46,42,38,100,91,79,30.10,29.82,10,0,0,0.30
2013-1-10,50,39,33,40,34,30,96,83,52,30.06,29.92,11,1,0,0.00
2013-1-11,51,37,30,34,30,28,94,78,43,30.15,30.04,7,0,0,0.00
2013-1-12,50,36,29,28,25,20,89,66,35,30.15,30.06,8,0,0,0.00
2013-1-13,49,35,27,30,23,15,92,64,40,30.18,30.08,9,1,0,0.00
2013-1-14,53,37,27,27,21,14,76,55,27,30.32,30.11,7,0,0,0.00
2013-1-15,53,38,30,33,29,25,84,71,45,30.42,30.31,6,0,0,0.00
2013-1-16,62,42,32,36,32,28,87,70,35,30.36,30.20,6,0,0,0.00
2013-1-17,67,45,34,38,33,28,85,67,32,30.20,30.09,7,0,0,0.00
2013-1-18,68,48,37,39,34,28,78,61,33,30.16,30.06,6,0,0,0.00
2013-1-19,68,48,37,38,34,29,83,62,31,30.19,30.08,7,0,0,0.00
2013-1-20,68,48,38,38,34,29,78,61,31,30.16,30.04,6,0,0,0.00
2013-1-21,67,48,38,41,35,29,79,64,36,30.11,30.03,7,0,0,0.00
2013-1-22,69,50,39,44,37,28,78,62,31,30.07,29.94,7,0,0,0.00
2013-1-23,62,51,46,48,40,33,92,69,37,30.00,29.89,5,0,0,0.06
2013-1-24,59,52,47,54,49,46,96,92,81,30.10,29.97,6,0,0,0.07
2013-1-25,67,56,51,58,53,50,98,90,69,30.10,29.93,9,0,0,0.03
2013-1-26,59,51,43,52,46,39,97,86,59,29.94,29.83,8,0,0,0.00
2013-1-27,55,43,36,43,38,34,97,82,56,30.05,29.91,9,0,0,0.05
2013-1-28,56,43,35,37,34,30,87,72,48,30.17,30.03,10,1,0,0.00
2013-1-29,58,46,38,40,37,34,87,73,51,30.23,30.14,12,1,0,0.00
2013-1-30,63,48,39,45,41,36,90,76,49,30.26,30.18,9,0,0,0.00
2013-1-31,68,50,40,48,42,37,91,77,48,30.22,30.10,8,0,0,0.00